Time;durP1;ratioP1;P1;durP2;ratioP2;P2;SDS_P1;SDS_P2;PMS_P1;PMS_P2;Temp;Humidity;BMP_temperature;BMP_pressure;BME280_temperature;BME280_humidity;BME280_pressure;Samples;Min_cycle;Max_cycle;Signal;HPM_P1;HPM_P2
2022/12/31 00:01:53;;;;;;;41.10;17.60;;;3.50;99.90;;;;;;6256211;23;20070;-81
2022/12/31 00:04:30;;;;;;;41.25;16.85;;;3.60;99.90;;;;;;6247177;22;20061;-84
2022/12/31 00:07:01;;;;;;;44.03;17.33;;;3.60;99.90;;;;;;6283626;23;20051;-86
2022/12/31 00:09:36;;;;;;;67.45;19.05;;;3.60;99.90;;;;;;6282229;23;20343;-82
2022/12/31 00:12:07;;;;;;;39.28;17.23;;;3.60;99.90;;;;;;6275806;23;20059;-83
2022/12/31 00:14:39;;;;;;;60.15;19.27;;;3.60;99.90;;;;;;6270988;23;20021;-81
2022/12/31 00:17:12;;;;;;;44.58;15.88;;;3.60;99.90;;;;;;6300629;23;20367;-84
2022/12/31 00:19:48;;;;;;;40.58;17.30;;;3.70;99.90;;;;;;6268417;23;20026;-80
2022/12/31 00:22:23;;;;;;;46.33;17.60;;;3.70;99.90;;;;;;6268971;23;20063;-79
2022/12/31 00:24:54;;;;;;;49.50;18.80;;;3.70;99.90;;;;;;6269471;23;20058;-86
2022/12/31 00:27:29;;;;;;;49.30;17.42;;;3.70;99.90;;;;;;6247166;23;20070;-81
2022/12/31 00:30:00;;;;;;;45.30;17.63;;;3.80;99.90;;;;;;6268776;23;20213;-85
2022/12/31 00:32:32;;;;;;;69.18;17.52;;;3.80;99.90;;;;;;6244283;23;20339;-84
2022/12/31 00:35:03;;;;;;;46.10;17.27;;;3.80;99.90;;;;;;6246250;23;20002;-82
2022/12/31 00:37:37;;;;;;;40.00;17.15;;;3.80;99.90;;;;;;6269440;23;20089;-77
2022/12/31 00:40:12;;;;;;;46.38;17.33;;;3.80;99.90;;;;;;6243459;23;20058;-79
2022/12/31 00:42:46;;;;;;;38.17;16.40;;;3.70;99.90;;;;;;6244234;23;20010;-80
2022/12/31 00:45:19;;;;;;;48.33;17.27;;;3.70;99.90;;;;;;6270469;23;20071;-81
2022/12/31 00:47:52;;;;;;;36.38;17.35;;;3.70;99.90;;;;;;6269242;23;20007;-83
2022/12/31 00:50:26;;;;;;;35.17;17.85;;;3.60;99.90;;;;;;6247030;23;20065;-81
2022/12/31 00:53:00;;;;;;;29.90;14.60;;;3.40;99.90;;;;;;6247556;23;20054;-79
2022/12/31 00:55:36;;;;;;;38.40;15.63;;;3.40;99.90;;;;;;6246802;23;20283;-83
2022/12/31 00:58:07;;;;;;;42.60;16.23;;;3.30;99.90;;;;;;6246743;23;20217;-80
2022/12/31 01:00:42;;;;;;;30.13;14.90;;;3.20;99.90;;;;;;6223966;23;20015;-80
2022/12/31 01:03:13;;;;;;;35.30;16.83;;;3.20;99.90;;;;;;6273017;23;20003;-82
2022/12/31 01:05:49;;;;;;;30.15;15.27;;;3.10;99.90;;;;;;6263716;23;20064;-82
2022/12/31 01:08:20;;;;;;;33.80;16.88;;;3.10;99.90;;;;;;6248200;23;20351;-84
2022/12/31 01:13:41;;;;;;;33.35;14.85;;;3.00;99.90;;;;;;6274359;23;20058;-81
2022/12/31 01:16:13;;;;;;;31.23;15.10;;;3.10;99.90;;;;;;6246834;23;20050;-79
2022/12/31 01:18:45;;;;;;;36.92;16.38;;;3.10;99.90;;;;;;6269663;23;20014;-78
2022/12/31 01:21:20;;;;;;;35.50;16.50;;;3.10;99.90;;;;;;6294527;23;20021;-82
2022/12/31 01:23:53;;;;;;;33.33;15.90;;;3.20;99.90;;;;;;6246734;23;20062;-83
2022/12/31 01:26:30;;;;;;;33.83;16.10;;;3.20;99.90;;;;;;6247518;23;20005;-82
2022/12/31 01:29:02;;;;;;;38.28;16.20;;;3.30;99.90;;;;;;6270903;23;20213;-79
2022/12/31 01:31:34;;;;;;;32.97;13.73;;;3.20;99.90;;;;;;6247150;23;20339;-80
2022/12/31 01:34:06;;;;;;;39.20;16.17;;;3.00;99.90;;;;;;6248241;23;20066;-79
2022/12/31 01:36:41;;;;;;;31.10;15.15;;;3.10;99.90;;;;;;6269115;23;20074;-79
2022/12/31 01:39:14;;;;;;;31.58;15.30;;;3.20;99.90;;;;;;6246183;23;20050;-80
2022/12/31 01:41:46;;;;;;;36.40;17.08;;;3.10;99.90;;;;;;6268947;23;20296;-82
2022/12/31 01:44:26;;;;;;;35.78;16.67;;;3.20;99.90;;;;;;6246100;23;20086;-80
2022/12/31 01:47:02;;;;;;;34.30;16.30;;;3.20;99.90;;;;;;6270933;23;20078;-83
2022/12/31 01:49:55;;;;;;;32.25;15.85;;;3.30;99.90;;;;;;6271037;23;20070;-80
2022/12/31 01:52:31;;;;;;;27.67;14.93;;;3.30;99.90;;;;;;6273369;23;19995;-83
2022/12/31 01:55:14;;;;;;;32.95;15.23;;;3.30;99.90;;;;;;6247715;23;20002;-81
2022/12/31 01:57:49;;;;;;;32.42;14.35;;;3.10;99.90;;;;;;6271411;23;20239;-82
2022/12/31 02:00:20;;;;;;;32.92;15.75;;;3.00;99.90;;;;;;6294394;23;20058;-82
2022/12/31 02:02:51;;;;;;;30.75;15.07;;;3.00;99.90;;;;;;6245791;23;20069;-80
2022/12/31 02:05:40;;;;;;;28.45;14.95;;;3.10;99.90;;;;;;6231847;23;20023;-83
2022/12/31 02:08:11;;;;;;;42.35;17.30;;;3.10;99.90;;;;;;6239470;23;20070;-80
2022/12/31 02:10:46;;;;;;;31.38;15.85;;;3.10;99.90;;;;;;6269080;23;20057;-83
2022/12/31 02:13:17;;;;;;;22.95;12.73;;;3.10;99.90;;;;;;6222086;23;20005;-79
2022/12/31 02:16:31;;;;;;;33.75;16.52;;;3.20;99.90;;;;;;6246478;23;20235;-80
2022/12/31 02:19:37;;;;;;;32.55;16.08;;;3.20;99.90;;;;;;6286148;23;20226;-81
2022/12/31 02:22:42;;;;;;;34.50;14.85;;;3.10;99.90;;;;;;6262101;23;20016;-81
2022/12/31 02:25:25;;;;;;;31.58;14.95;;;3.20;99.90;;;;;;6309772;23;20002;-85
2022/12/31 02:28:49;;;;;;;30.83;15.38;;;3.20;99.90;;;;;;6285355;23;20073;-80
2022/12/31 02:31:27;;;;;;;34.90;15.60;;;3.20;99.90;;;;;;6243509;23;19999;-80
2022/12/31 02:34:16;;;;;;;29.73;13.88;;;3.30;99.90;;;;;;6302977;23;20053;-84
2022/12/31 02:36:54;;;;;;;29.27;13.68;;;3.40;99.90;;;;;;6310096;23;20327;-83
2022/12/31 02:39:29;;;;;;;26.70;12.45;;;3.50;99.90;;;;;;6310404;23;20000;-85
2022/12/31 02:42:06;;;;;;;36.55;15.18;;;3.60;99.90;;;;;;6285943;23;20319;-84
2022/12/31 02:44:40;;;;;;;36.60;16.05;;;3.60;99.90;;;;;;6289519;23;20340;-85
2022/12/31 02:47:41;;;;;;;38.40;17.02;;;3.60;99.90;;;;;;6288586;23;20073;-82
2022/12/31 02:50:59;;;;;;;36.35;16.15;;;3.60;99.90;;;;;;6289389;23;20534;-83
2022/12/31 02:53:45;;;;;;;37.03;17.60;;;3.40;99.90;;;;;;6177477;23;20003;-80
2022/12/31 02:56:26;;;;;;;33.10;16.50;;;3.40;99.90;;;;;;6134938;24;20209;-80
2022/12/31 03:02:15;;;;;;;36.15;17.60;;;3.50;99.90;;;;;;6158816;23;20127;-79
2022/12/31 03:04:54;;;;;;;37.58;16.63;;;3.40;99.90;;;;;;6182586;23;20015;-77
2022/12/31 03:07:33;;;;;;;32.78;16.38;;;3.40;99.90;;;;;;6248598;23;20061;-79
2022/12/31 03:10:05;;;;;;;36.47;16.52;;;3.40;99.90;;;;;;6249822;23;20062;-80
2022/12/31 03:12:46;;;;;;;34.75;16.27;;;3.40;99.90;;;;;;6249636;23;20070;-82
2022/12/31 03:15:28;;;;;;;30.08;16.50;;;3.40;99.90;;;;;;6272644;23;20055;-79
2022/12/31 03:22:26;;;;;;;43.85;17.73;;;3.50;99.90;;;;;;6249071;23;20073;-78
2022/12/31 03:26:59;;;;;;;33.45;17.55;;;3.70;99.90;;;;;;6271690;23;20210;-80
2022/12/31 03:29:35;;;;;;;31.48;16.10;;;3.70;99.90;;;;;;6247660;23;20194;-79
2022/12/31 03:32:06;;;;;;;31.33;16.88;;;3.70;99.90;;;;;;6247978;23;20286;-78
2022/12/31 03:34:40;;;;;;;31.98;16.45;;;3.70;99.90;;;;;;6271027;23;20188;-80
2022/12/31 03:37:12;;;;;;;25.52;14.25;;;3.70;99.90;;;;;;6247262;23;20066;-80
2022/12/31 03:39:43;;;;;;;28.90;15.30;;;3.80;99.90;;;;;;6247464;23;20289;-80
2022/12/31 03:42:16;;;;;;;29.27;14.95;;;3.70;99.90;;;;;;6249786;23;20003;-79
2022/12/31 03:44:52;;;;;;;23.73;13.18;;;3.60;99.90;;;;;;6248899;23;20334;-83
2022/12/31 03:47:23;;;;;;;27.38;15.30;;;3.60;99.90;;;;;;6249084;23;20078;-80
2022/12/31 03:49:55;;;;;;;27.88;15.13;;;3.60;99.90;;;;;;6248741;23;20054;-77
2022/12/31 03:52:28;;;;;;;25.23;13.93;;;3.60;99.90;;;;;;6248868;23;20058;-79
2022/12/31 03:55:02;;;;;;;31.33;16.13;;;3.50;99.90;;;;;;6250497;23;20053;-78
2022/12/31 03:57:36;;;;;;;25.17;14.43;;;3.50;99.90;;;;;;6248460;23;20058;-82
2022/12/31 04:00:13;;;;;;;29.92;14.23;;;3.50;99.90;;;;;;6248014;23;20002;-83
2022/12/31 04:02:45;;;;;;;25.25;14.02;;;3.50;99.90;;;;;;6271765;23;20339;-80
2022/12/31 04:05:20;;;;;;;25.13;14.02;;;3.50;99.90;;;;;;6241797;23;20069;-81
2022/12/31 04:07:51;;;;;;;24.35;13.57;;;3.50;99.90;;;;;;6243796;23;20054;-80
2022/12/31 04:10:25;;;;;;;27.65;14.40;;;3.50;99.90;;;;;;6271149;23;20228;-81
2022/12/31 04:13:01;;;;;;;25.53;14.30;;;3.60;99.90;;;;;;6294884;23;20252;-78
2022/12/31 04:15:32;;;;;;;26.60;14.82;;;3.50;99.90;;;;;;6295571;23;20210;-79
2022/12/31 04:18:03;;;;;;;25.48;13.10;;;3.50;99.90;;;;;;6270775;23;20013;-81
2022/12/31 04:20:35;;;;;;;28.30;15.10;;;3.50;99.90;;;;;;6248599;23;20058;-79
2022/12/31 04:23:07;;;;;;;25.63;14.52;;;3.60;99.90;;;;;;6246657;23;20304;-80
2022/12/31 04:25:38;;;;;;;24.85;13.02;;;3.50;99.90;;;;;;6246330;23;20307;-83
2022/12/31 04:28:15;;;;;;;21.55;13.20;;;3.60;99.90;;;;;;6246094;23;20204;-79
2022/12/31 04:30:48;;;;;;;27.98;14.55;;;3.60;99.90;;;;;;6245794;23;20344;-80
2022/12/31 04:33:20;;;;;;;24.00;13.20;;;3.70;99.90;;;;;;6246402;23;20058;-79
2022/12/31 04:35:51;;;;;;;24.23;13.63;;;3.70;99.90;;;;;;6244702;23;20352;-80
2022/12/31 04:38:25;;;;;;;20.95;12.75;;;3.70;99.90;;;;;;6246244;23;20506;-84
2022/12/31 04:43:55;;;;;;;26.25;13.80;;;3.90;99.90;;;;;;6269451;23;20122;-82
2022/12/31 04:46:40;;;;;;;26.13;14.32;;;3.90;99.90;;;;;;6246020;23;20054;-83
2022/12/31 04:49:14;;;;;;;24.88;14.02;;;4.00;99.90;;;;;;6246284;23;20321;-83
2022/12/31 04:51:48;;;;;;;24.55;13.40;;;4.00;99.90;;;;;;6269949;23;20003;-81
2022/12/31 04:54:20;;;;;;;23.30;13.65;;;3.90;99.90;;;;;;6247029;23;20340;-79
2022/12/31 04:56:54;;;;;;;25.60;14.60;;;3.80;99.90;;;;;;6268123;23;20021;-80
2022/12/31 04:59:25;;;;;;;21.13;12.43;;;3.90;99.90;;;;;;6248049;23;20617;-81
2022/12/31 05:01:56;;;;;;;24.83;14.15;;;4.00;99.90;;;;;;6270596;23;20303;-84
2022/12/31 05:04:30;;;;;;;20.35;12.75;;;4.00;99.90;;;;;;6235490;22;20046;-79
2022/12/31 05:07:01;;;;;;;22.38;14.07;;;4.10;99.90;;;;;;6270197;23;20021;-83
2022/12/31 05:09:41;;;;;;;22.83;13.35;;;4.00;99.90;;;;;;6370839;23;20142;-83
2022/12/31 05:12:15;;;;;;;22.50;12.30;;;3.90;99.90;;;;;;6269649;23;20061;-82
2022/12/31 05:14:49;;;;;;;22.27;13.75;;;3.90;99.90;;;;;;6269017;23;19995;-79
2022/12/31 05:17:23;;;;;;;25.05;12.98;;;3.90;99.90;;;;;;6244988;23;20001;-80
2022/12/31 05:19:54;;;;;;;22.88;12.82;;;4.00;99.90;;;;;;6244837;23;20009;-80
2022/12/31 05:22:28;;;;;;;21.63;13.63;;;4.10;99.90;;;;;;6245441;23;20017;-79
2022/12/31 05:25:00;;;;;;;26.27;12.15;;;4.10;99.90;;;;;;6221170;23;20241;-79
2022/12/31 05:27:31;;;;;;;23.30;12.77;;;4.20;99.90;;;;;;6245355;23;20013;-79
2022/12/31 05:30:04;;;;;;;26.27;13.82;;;4.30;99.90;;;;;;6244711;23;20221;-84
2022/12/31 05:32:38;;;;;;;23.10;12.75;;;4.30;99.90;;;;;;6250953;23;20046;-81
2022/12/31 05:35:12;;;;;;;22.27;12.80;;;4.30;99.90;;;;;;6275032;23;20136;-85
2022/12/31 05:37:43;;;;;;;24.88;14.27;;;4.20;99.90;;;;;;6229395;23;20054;-85
2022/12/31 05:40:17;;;;;;;19.73;11.25;;;4.10;99.90;;;;;;6269377;23;20067;-82
2022/12/31 05:42:49;;;;;;;20.75;11.88;;;4.10;99.90;;;;;;6270546;23;20003;-81
2022/12/31 05:45:24;;;;;;;20.85;11.52;;;4.10;99.90;;;;;;6267608;23;20539;-82
2022/12/31 05:47:58;;;;;;;24.33;13.65;;;4.20;99.90;;;;;;6268282;23;20005;-80
2022/12/31 05:50:34;;;;;;;23.88;13.75;;;4.20;99.90;;;;;;6219858;23;20007;-79
2022/12/31 05:53:07;;;;;;;25.15;14.05;;;4.20;99.90;;;;;;6244052;23;20050;-81
2022/12/31 05:55:44;;;;;;;25.80;13.40;;;4.20;99.90;;;;;;6267898;23;19999;-82
2022/12/31 05:58:16;;;;;;;23.70;13.15;;;4.20;99.90;;;;;;6267685;23;20046;-81
2022/12/31 06:00:52;;;;;;;20.83;13.23;;;4.30;99.90;;;;;;6244535;23;20054;-79
2022/12/31 06:03:24;;;;;;;22.88;13.25;;;4.40;99.90;;;;;;6291263;23;20066;-78
2022/12/31 06:05:55;;;;;;;22.13;12.98;;;4.50;99.90;;;;;;6258405;23;20078;-83
2022/12/31 06:08:28;;;;;;;22.55;14.23;;;4.50;99.90;;;;;;6267606;23;20058;-78
2022/12/31 06:11:02;;;;;;;26.73;14.13;;;4.40;99.90;;;;;;6243401;23;20050;-79
2022/12/31 06:13:34;;;;;;;24.52;12.75;;;4.30;99.90;;;;;;6267066;23;20006;-81
2022/12/31 06:16:09;;;;;;;23.33;14.35;;;4.30;99.90;;;;;;6244785;23;20005;-82
2022/12/31 06:18:40;;;;;;;23.80;13.20;;;4.30;99.90;;;;;;6246246;23;20002;-82
2022/12/31 06:21:12;;;;;;;23.25;13.25;;;4.30;99.90;;;;;;6245348;23;20054;-81
2022/12/31 06:23:49;;;;;;;27.40;13.32;;;4.30;99.90;;;;;;6246676;23;20070;-83
2022/12/31 06:26:20;;;;;;;24.38;13.55;;;4.10;99.90;;;;;;6246684;23;20054;-83
2022/12/31 06:28:51;;;;;;;25.02;14.13;;;4.10;99.90;;;;;;6247629;23;20066;-79
2022/12/31 06:31:22;;;;;;;24.75;12.98;;;4.10;99.90;;;;;;6246750;23;20157;-77
2022/12/31 06:33:54;;;;;;;24.45;14.15;;;4.10;99.90;;;;;;6294932;23;19999;-81
2022/12/31 06:36:26;;;;;;;24.90;14.52;;;4.00;99.90;;;;;;6247249;23;20066;-81
2022/12/31 06:38:59;;;;;;;24.88;13.75;;;4.00;99.90;;;;;;6245319;23;19995;-81
2022/12/31 06:41:33;;;;;;;26.73;15.63;;;4.10;99.90;;;;;;6246261;23;20003;-80
2022/12/31 06:44:07;;;;;;;25.80;15.30;;;4.20;99.90;;;;;;6246220;23;20077;-79
2022/12/31 06:46:44;;;;;;;24.10;13.85;;;4.20;99.90;;;;;;6246174;23;20050;-77
2022/12/31 06:49:15;;;;;;;26.65;14.95;;;4.20;99.90;;;;;;6250025;23;20263;-84
2022/12/31 06:51:49;;;;;;;21.48;13.32;;;4.30;99.90;;;;;;6272407;23;20054;-81
2022/12/31 06:54:22;;;;;;;22.63;12.57;;;4.30;99.90;;;;;;6272790;23;20272;-83
2022/12/31 06:57:02;;;;;;;27.27;16.27;;;4.40;99.90;;;;;;6248513;23;20058;-77
2022/12/31 06:59:36;;;;;;;24.10;13.65;;;4.30;99.90;;;;;;6248524;23;20225;-81
2022/12/31 07:02:35;;;;;;;;;;;4.30;99.90;;;;;;6271562;23;20015;-84
2022/12/31 07:05:13;;;;;;;25.27;13.65;;;4.40;99.90;;;;;;6263667;23;19905;-78
2022/12/31 07:07:47;;;;;;;24.85;12.90;;;4.40;99.90;;;;;;6248001;23;20066;-79
2022/12/31 07:10:33;;;;;;;24.52;13.63;;;4.30;99.90;;;;;;6270670;23;20259;-85
2022/12/31 07:13:23;;;;;;;24.10;14.32;;;4.30;99.90;;;;;;6273273;23;20044;-83
2022/12/31 07:15:57;;;;;;;20.67;12.77;;;4.30;99.90;;;;;;6248734;23;20066;-80
2022/12/31 07:18:30;;;;;;;19.67;12.65;;;4.40;99.90;;;;;;6249069;23;20021;-82
2022/12/31 07:21:02;;;;;;;20.27;12.50;;;4.40;99.90;;;;;;6274870;23;20082;-80
2022/12/31 07:23:34;;;;;;;20.13;12.70;;;4.30;99.90;;;;;;6225134;23;20015;-79
2022/12/31 07:26:17;;;;;;;23.73;12.50;;;4.40;99.90;;;;;;6247159;23;20323;-80
2022/12/31 07:29:16;;;;;;;23.92;14.18;;;4.50;99.90;;;;;;6246959;23;20240;-81
2022/12/31 07:31:53;;;;;;;22.63;14.52;;;4.50;99.90;;;;;;6246417;23;20077;-79
2022/12/31 07:34:45;;;;;;;22.40;13.32;;;4.50;99.90;;;;;;6293267;23;20050;-81
2022/12/31 07:37:42;;;;;;;22.10;12.32;;;4.50;99.90;;;;;;6245818;23;19998;-79
2022/12/31 07:40:26;;;;;;;21.55;13.30;;;4.60;99.90;;;;;;6246192;23;20332;-84
2022/12/31 07:43:39;;;;;;;23.05;13.10;;;4.80;99.90;;;;;;6270516;23;20002;-82
2022/12/31 07:46:42;;;;;;;22.58;13.82;;;4.80;99.90;;;;;;6248670;23;20002;-80
2022/12/31 07:49:16;;;;;;;23.77;13.05;;;4.70;99.90;;;;;;6249057;23;20196;-78
2022/12/31 07:51:53;;;;;;;23.67;14.07;;;4.80;99.90;;;;;;6273372;23;20054;-80
2022/12/31 07:54:29;;;;;;;22.95;13.25;;;4.60;99.90;;;;;;6223833;23;20340;-80
2022/12/31 07:57:02;;;;;;;22.85;14.63;;;4.60;99.90;;;;;;6244830;23;20002;-77
2022/12/31 07:59:39;;;;;;;20.17;12.10;;;4.70;99.90;;;;;;6244600;23;20312;-84
2022/12/31 08:02:38;;;;;;;22.48;13.18;;;4.90;99.90;;;;;;6244787;23;20019;-81
2022/12/31 08:05:30;;;;;;;20.77;12.05;;;5.00;99.90;;;;;;6261446;23;20021;-81
2022/12/31 08:08:33;;;;;;;19.90;11.43;;;5.00;99.90;;;;;;6244964;23;20005;-83
2022/12/31 08:11:37;;;;;;;21.40;12.52;;;5.20;99.90;;;;;;6292681;23;20253;-80
2022/12/31 08:14:14;;;;;;;22.10;13.77;;;5.40;99.90;;;;;;6270491;23;20066;-83
2022/12/31 08:16:49;;;;;;;24.10;13.52;;;5.60;99.90;;;;;;6244844;23;20327;-78
2022/12/31 08:19:31;;;;;;;20.80;12.00;;;5.70;99.90;;;;;;6246513;23;20003;-82
2022/12/31 08:22:21;;;;;;;29.98;13.48;;;5.80;99.90;;;;;;6246120;23;20014;-81
2022/12/31 08:25:10;;;;;;;21.90;12.85;;;5.80;99.90;;;;;;6291501;23;19995;-81
2022/12/31 08:28:33;;;;;;;19.20;12.90;;;5.80;99.90;;;;;;6292544;23;20306;-83
2022/12/31 08:31:09;;;;;;;19.77;12.60;;;5.80;99.90;;;;;;6287131;23;19997;-81
2022/12/31 08:33:57;;;;;;;20.60;13.27;;;5.80;99.90;;;;;;6246080;23;20058;-83
2022/12/31 08:37:01;;;;;;;22.05;14.35;;;5.90;99.90;;;;;;6292466;23;20054;-79
2022/12/31 08:39:44;;;;;;;23.55;13.65;;;5.90;99.90;;;;;;6247252;23;20002;-80
2022/12/31 08:42:52;;;;;;;20.63;13.27;;;5.90;99.90;;;;;;6244426;23;20017;-78
2022/12/31 08:45:36;;;;;;;20.40;13.27;;;6.00;99.90;;;;;;6293019;23;20003;-81
2022/12/31 08:48:10;;;;;;;19.85;12.77;;;6.00;99.90;;;;;;6244052;23;20009;-83
2022/12/31 08:50:42;;;;;;;21.15;12.75;;;5.90;99.90;;;;;;6267492;23;20001;-82
2022/12/31 08:53:16;;;;;;;22.60;13.70;;;5.80;99.90;;;;;;6267949;23;20011;-82
2022/12/31 08:55:48;;;;;;;;;;;5.80;99.90;;;;;;6244213;23;20058;-80
2022/12/31 08:58:40;;;;;;;21.63;12.93;;;5.80;99.90;;;;;;6268465;23;19936;-80
2022/12/31 09:01:17;;;;;;;24.02;13.82;;;6.00;99.90;;;;;;6244277;23;20002;-80
2022/12/31 09:04:20;;;;;;;22.40;14.43;;;6.30;99.90;;;;;;6268733;23;20021;-83
2022/12/31 09:07:02;;;;;;;21.90;12.73;;;6.20;99.90;;;;;;6253816;23;20279;-82
2022/12/31 09:09:57;;;;;;;24.38;13.73;;;6.10;99.90;;;;;;6244013;23;20071;-81
2022/12/31 09:12:58;;;;;;;22.35;14.13;;;5.90;99.90;;;;;;6270035;23;20058;-80
2022/12/31 09:15:55;;;;;;;28.02;14.88;;;6.00;99.90;;;;;;6267838;23;20358;-81
2022/12/31 09:18:29;;;;;;;24.95;14.48;;;6.10;99.90;;;;;;6268818;23;20003;-78
2022/12/31 09:21:00;;;;;;;22.45;14.55;;;5.80;99.90;;;;;;6267647;23;20013;-79
2022/12/31 09:23:34;;;;;;;22.48;13.75;;;5.90;99.90;;;;;;6368212;23;20343;-83
2022/12/31 09:26:05;;;;;;;;;;;5.90;99.90;;;;;;6244914;23;20054;-83
2022/12/31 09:29:11;;;;;;;24.52;15.80;;;5.80;99.90;;;;;;6291493;23;19948;-81
2022/12/31 09:31:54;;;;;;;25.27;15.15;;;5.80;99.90;;;;;;6245399;23;20058;-81
2022/12/31 09:34:55;;;;;;;23.67;15.38;;;5.90;99.90;;;;;;6267576;23;20342;-83
2022/12/31 09:37:41;;;;;;;22.45;12.82;;;5.90;99.90;;;;;;6245095;23;20033;-79
2022/12/31 09:40:27;;;;;;;22.73;14.93;;;6.10;99.90;;;;;;6244125;23;20056;-82
2022/12/31 09:43:20;;;;;;;24.48;14.85;;;6.00;99.90;;;;;;6242694;23;20003;-83
2022/12/31 09:46:13;;;;;;;22.00;14.52;;;5.80;99.90;;;;;;6244893;23;20214;-80
2022/12/31 09:49:21;;;;;;;25.20;13.77;;;5.80;99.90;;;;;;6244073;23;20066;-81
2022/12/31 09:52:46;;;;;;;23.38;13.18;;;5.80;99.90;;;;;;6267375;23;20285;-81
2022/12/31 09:55:23;;;;;;;22.05;13.23;;;5.90;99.90;;;;;;6257785;23;20009;-85
2022/12/31 09:58:31;;;;;;;20.90;12.52;;;6.20;99.90;;;;;;6243571;23;20009;-83
2022/12/31 10:01:14;;;;;;;22.95;13.35;;;6.30;99.90;;;;;;6245249;23;20089;-80
2022/12/31 10:04:45;;;;;;;20.42;13.60;;;6.40;99.90;;;;;;6267911;23;20007;-77
2022/12/31 10:07:19;;;;;;;23.15;13.82;;;6.40;99.90;;;;;;6148763;23;20014;-79
2022/12/31 10:10:20;;;;;;;23.13;13.18;;;6.50;99.90;;;;;;6283442;23;20147;-80
2022/12/31 10:13:08;;;;;;;21.67;13.40;;;6.60;99.90;;;;;;6211171;23;20232;-82
2022/12/31 10:16:07;;;;;;;20.80;13.05;;;6.70;99.90;;;;;;6208253;23;20003;-82
2022/12/31 10:18:58;;;;;;;21.88;12.88;;;6.70;99.90;;;;;;6209668;23;20067;-81
2022/12/31 10:21:29;;;;;;;23.48;13.70;;;6.70;99.90;;;;;;6284155;23;20059;-84
2022/12/31 10:24:38;;;;;;;18.48;12.13;;;6.60;99.90;;;;;;6282783;23;20011;-83
2022/12/31 10:27:26;;;;;;;22.48;14.73;;;6.50;99.90;;;;;;6284081;23;20079;-78
2022/12/31 10:30:20;;;;;;;23.48;14.88;;;6.60;99.90;;;;;;6209915;23;20268;-82
2022/12/31 10:33:16;;;;;;;24.50;14.57;;;6.50;99.90;;;;;;6185726;23;20151;-83
2022/12/31 10:36:12;;;;;;;23.05;14.20;;;6.50;99.90;;;;;;6209126;23;20007;-82
2022/12/31 10:39:11;;;;;;;20.20;13.60;;;6.50;99.90;;;;;;6259044;23;20003;-83
2022/12/31 10:42:12;;;;;;;24.73;15.00;;;6.60;99.90;;;;;;6245187;23;20062;-81
2022/12/31 10:45:13;;;;;;;25.88;13.98;;;6.70;99.90;;;;;;6247043;23;20142;-78
2022/12/31 10:48:15;;;;;;;26.70;15.55;;;7.00;99.90;;;;;;6245873;23;20466;-80
2022/12/31 10:51:17;;;;;;;22.88;14.55;;;7.30;99.90;;;;;;6246404;23;20062;-81
2022/12/31 10:54:23;;;;;;;28.92;15.75;;;7.50;99.90;;;;;;6293463;23;20054;-79
2022/12/31 10:57:06;;;;;;;;;;;7.70;99.90;;;;;;6294403;23;20009;-82
2022/12/31 10:59:42;;;;;;;21.98;13.75;;;7.90;99.90;;;;;;6269980;23;19904;-79
2022/12/31 11:02:23;;;;;;;23.00;14.07;;;8.10;99.90;;;;;;6270545;23;20291;-80
2022/12/31 11:05:12;;;;;;;23.42;14.98;;;8.00;99.90;;;;;;6262478;23;20098;-79
2022/12/31 11:07:59;;;;;;;21.70;13.10;;;7.70;99.90;;;;;;6245997;23;20387;-83
2022/12/31 11:10:30;;;;;;;21.17;13.73;;;7.70;99.90;;;;;;6269695;23;20058;-83
2022/12/31 11:13:04;;;;;;;18.80;12.43;;;7.60;99.90;;;;;;6245053;23;20100;-80
2022/12/31 11:16:33;;;;;;;20.60;12.60;;;7.80;99.90;;;;;;6269494;23;20029;-82
2022/12/31 11:19:26;;;;;;;18.75;12.68;;;7.90;99.90;;;;;;6308776;23;20311;-81
2022/12/31 11:22:34;;;;;;;18.83;12.85;;;8.10;99.90;;;;;;6308270;23;20026;-79
2022/12/31 11:25:31;;;;;;;21.27;13.52;;;8.50;99.90;;;;;;6247455;23;20001;-81
2022/12/31 11:28:29;;;;;;;22.88;14.32;;;8.90;99.90;;;;;;6259856;23;20062;-80
2022/12/31 11:31:20;;;;;;;21.48;13.20;;;9.20;99.90;;;;;;6244758;23;20054;-79
2022/12/31 11:34:15;;;;;;;19.00;13.38;;;9.70;99.90;;;;;;6270190;23;20002;-79
2022/12/31 11:37:09;;;;;;;21.55;12.63;;;9.90;99.90;;;;;;6271048;23;20054;-81
2022/12/31 11:39:48;;;;;;;21.27;13.23;;;10.10;99.90;;;;;;6245367;23;20058;-82
2022/12/31 11:42:42;;;;;;;22.40;14.57;;;10.20;99.90;;;;;;6267896;23;20177;-81
2022/12/31 11:45:39;;;;;;;20.85;12.52;;;10.40;99.90;;;;;;6268976;23;20009;-84
2022/12/31 11:48:11;;;;;;;19.98;11.82;;;11.30;99.90;;;;;;6243940;23;19995;-83
2022/12/31 11:51:02;;;;;;;19.00;12.38;;;11.90;58.70;;;;;;6268738;23;20003;-83
2022/12/31 11:54:04;;;;;;;18.65;12.68;;;12.10;1.00;;;;;;6246606;23;20233;-83
2022/12/31 11:56:42;;;;;;;19.88;13.27;;;12.70;30.50;;;;;;6268170;23;20271;-82
2022/12/31 11:59:16;;;;;;;18.42;13.13;;;13.10;1.00;;;;;;6292257;23;20058;-82
2022/12/31 12:01:55;;;;;;;16.25;12.10;;;12.50;2.60;;;;;;6268406;23;20077;-81
2022/12/31 12:04:34;;;;;;;19.35;12.55;;;12.70;1.00;;;;;;6235712;22;20070;-79
2022/12/31 12:07:15;;;;;;;16.20;11.10;;;12.60;1.00;;;;;;6244897;23;20058;-82
2022/12/31 12:09:47;;;;;;;17.45;12.13;;;12.20;1.00;;;;;;6267926;23;20003;-82
2022/12/31 12:12:24;;;;;;;19.65;11.85;;;11.90;1.00;;;;;;6244698;23;20054;-79
2022/12/31 12:14:58;;;;;;;19.05;12.05;;;11.90;1.00;;;;;;6221098;23;20007;-82
2022/12/31 12:17:33;;;;;;;21.58;13.27;;;11.30;1.00;;;;;;6268205;23;20098;-77
2022/12/31 12:20:17;;;;;;;18.35;13.43;;;10.90;9.70;;;;;;6244144;23;20060;-79
2022/12/31 12:22:55;;;;;;;18.40;12.18;;;10.50;85.80;;;;;;6268235;23;20011;-82
2022/12/31 12:25:41;;;;;;;18.75;12.10;;;10.30;99.90;;;;;;6292960;23;20009;-83
2022/12/31 12:28:44;;;;;;;20.15;13.68;;;10.40;99.90;;;;;;6245704;23;20528;-81
2022/12/31 12:31:22;;;;;;;20.88;13.32;;;10.40;99.90;;;;;;6247866;23;20007;-80
2022/12/31 12:33:55;;;;;;;20.23;12.77;;;10.90;99.90;;;;;;6290758;23;20331;-79
2022/12/31 12:36:29;;;;;;;18.88;13.30;;;11.10;38.80;;;;;;6293068;23;20152;-79
2022/12/31 12:39:17;;;;;;;21.00;13.48;;;11.20;81.70;;;;;;6243411;23;20037;-80
2022/12/31 12:42:09;;;;;;;16.02;11.65;;;11.20;18.60;;;;;;6245484;23;20310;-79
2022/12/31 12:44:45;;;;;;;20.60;12.60;;;11.30;96.40;;;;;;6246020;23;20349;-78
2022/12/31 12:47:21;;;;;;;20.33;13.85;;;11.40;62.10;;;;;;6244249;23;20013;-80
2022/12/31 12:49:54;;;;;;;18.40;13.02;;;11.10;37.80;;;;;;6269764;23;20009;-77
2022/12/31 12:53:03;;;;;;;19.27;13.85;;;11.30;99.90;;;;;;6294191;23;20485;-75
2022/12/31 12:55:58;;;;;;;19.13;13.35;;;11.20;30.00;;;;;;6268661;23;20029;-79
2022/12/31 12:58:44;;;;;;;;;;;11.10;17.20;;;;;;6244375;23;20009;-81
2022/12/31 13:01:35;;;;;;;;;;;11.30;99.90;;;;;;6270705;23;19942;-80
2022/12/31 13:04:27;;;;;;;20.15;13.48;;;11.50;90.50;;;;;;6268117;23;20339;-81
2022/12/31 13:07:04;;;;;;;20.67;13.45;;;11.70;33.10;;;;;;6232345;23;20023;-82
2022/12/31 13:10:12;;;;;;;20.40;12.93;;;11.80;19.70;;;;;;6270606;23;20066;-79
2022/12/31 13:12:47;;;;;;;18.95;12.57;;;11.70;27.50;;;;;;6293925;23;20003;-83
2022/12/31 13:15:46;;;;;;;16.58;11.90;;;11.70;8.00;;;;;;6297359;23;20054;-81
2022/12/31 13:18:52;;;;;;;17.73;12.80;;;11.50;33.50;;;;;;6296658;23;19995;-83
2022/12/31 13:21:36;;;;;;;20.13;12.68;;;11.40;38.30;;;;;;6291216;23;20588;-84
2022/12/31 13:24:28;;;;;;;22.75;14.00;;;11.40;99.90;;;;;;6269573;23;20225;-78
2022/12/31 13:27:09;;;;;;;18.65;12.75;;;11.10;33.80;;;;;;6268550;23;20029;-78
2022/12/31 13:29:48;;;;;;;18.77;14.02;;;10.70;99.90;;;;;;6269300;23;20070;-82
2022/12/31 13:32:26;;;;;;;18.05;12.55;;;10.70;99.90;;;;;;6293582;23;20009;-80
2022/12/31 13:35:19;;;;;;;21.30;13.32;;;10.70;99.90;;;;;;6267704;23;20242;-80
2022/12/31 13:37:59;;;;;;;20.65;13.80;;;10.60;99.90;;;;;;6267640;23;20322;-77
2022/12/31 13:41:09;;;;;;;20.85;13.25;;;10.50;99.90;;;;;;6290937;23;20059;-78
2022/12/31 13:44:07;;;;;;;19.52;13.18;;;10.30;99.90;;;;;;6274934;23;20292;-80
2022/12/31 13:46:48;;;;;;;21.48;13.25;;;10.30;99.90;;;;;;6246462;23;20003;-82
2022/12/31 13:49:25;;;;;;;19.58;13.23;;;10.10;99.90;;;;;;6269070;23;19991;-82
2022/12/31 13:52:19;;;;;;;22.13;14.30;;;10.20;99.90;;;;;;6246334;23;20332;-81
2022/12/31 13:55:11;;;;;;;21.63;14.00;;;10.00;99.90;;;;;;6245914;23;20319;-80
2022/12/31 13:57:44;;;;;;;20.48;14.02;;;9.90;99.90;;;;;;6267445;23;20277;-81
2022/12/31 14:00:23;;;;;;;21.73;14.83;;;9.70;99.90;;;;;;6291950;23;20050;-77
2022/12/31 14:03:23;;;;;;;22.80;13.98;;;9.60;99.90;;;;;;6243098;23;20121;-80
2022/12/31 14:06:16;;;;;;;21.67;13.93;;;9.70;99.90;;;;;;6239642;23;20025;-79
2022/12/31 14:08:47;;;;;;;21.00;12.55;;;9.60;99.90;;;;;;6269710;23;20074;-83